createdAt,value
2023-04-27T00:01:52.641Z,2.42
2023-04-27T00:04:19.301Z,2.30
2023-04-27T00:06:46.178Z,2.50
2023-04-27T00:09:12.863Z,2.50
2023-04-27T00:11:39.556Z,2.70
2023-04-27T00:14:06.106Z,2.72
2023-04-27T00:16:32.654Z,2.50
2023-04-27T00:18:59.379Z,2.33
2023-04-27T00:21:25.866Z,2.45
2023-04-27T00:23:52.414Z,2.40
2023-04-27T00:26:18.935Z,2.20
2023-04-27T00:28:48.549Z,2.47
2023-04-27T00:31:15.261Z,2.47
2023-04-27T00:33:41.766Z,2.75
2023-04-27T00:36:08.515Z,2.38
2023-04-27T00:38:34.922Z,2.55
2023-04-27T00:41:05.566Z,2.10
2023-04-27T00:43:32.656Z,2.20
2023-04-27T00:45:59.832Z,2.15
2023-04-27T00:48:26.569Z,2.40
2023-04-27T00:50:53.058Z,2.60
2023-04-27T00:53:19.612Z,2.33
2023-04-27T00:55:46.985Z,2.25
2023-04-27T00:58:13.552Z,2.35
2023-04-27T01:00:40.282Z,2.47
2023-04-27T01:03:07.501Z,2.10
2023-04-27T01:05:34.840Z,2.17
2023-04-27T01:08:01.473Z,2.42
2023-04-27T01:10:28.468Z,2.13
2023-04-27T01:12:55.630Z,2.28
2023-04-27T01:15:22.201Z,2.00
2023-04-27T01:17:48.699Z,2.33
2023-04-27T01:20:15.387Z,2.28
2023-04-27T01:22:43.118Z,2.33
2023-04-27T01:25:09.769Z,1.83
2023-04-27T01:27:36.306Z,1.90
2023-04-27T01:30:03.626Z,2.25
2023-04-27T01:32:30.582Z,2.10
2023-04-27T01:34:57.181Z,2.28
2023-04-27T01:37:26.295Z,2.20
2023-04-27T01:39:52.707Z,2.17
2023-04-27T01:42:19.148Z,2.05
2023-04-27T01:44:45.591Z,2.22
2023-04-27T01:47:12.064Z,2.15
2023-04-27T01:49:40.119Z,2.28
2023-04-27T01:52:06.831Z,2.10
2023-04-27T01:54:33.560Z,1.90
2023-04-27T01:57:00.029Z,2.22
2023-04-27T01:59:26.710Z,2.00
2023-04-27T02:01:53.742Z,1.90
2023-04-27T02:04:21.014Z,1.92
2023-04-27T02:06:47.661Z,1.90
2023-04-27T02:09:14.409Z,1.80
2023-04-27T02:11:41.106Z,2.10
2023-04-27T02:14:07.706Z,1.90
2023-04-27T02:16:36.879Z,2.00
2023-04-27T02:19:04.318Z,2.05
2023-04-27T02:21:30.796Z,1.80
2023-04-27T02:23:57.283Z,2.13
2023-04-27T02:26:29.213Z,2.42
2023-04-27T02:28:57.185Z,2.10
2023-04-27T02:31:24.264Z,2.00
2023-04-27T02:33:50.855Z,1.80
2023-04-27T02:36:17.259Z,2.13
2023-04-27T02:38:43.751Z,1.90
2023-04-27T02:41:10.278Z,1.95
2023-04-27T02:43:36.734Z,1.90
2023-04-27T02:46:05.817Z,2.20
2023-04-27T02:48:33.320Z,1.98
2023-04-27T02:53:26.289Z,2.35
2023-04-27T02:55:52.863Z,1.95
2023-04-27T02:58:20.031Z,1.92
2023-04-27T03:00:47.630Z,2.15
2023-04-27T03:03:15.560Z,1.92
2023-04-27T03:05:42.272Z,2.00
2023-04-27T03:08:08.829Z,1.83
2023-04-27T03:10:35.768Z,1.90
2023-04-27T03:13:02.737Z,2.08
2023-04-27T03:15:29.288Z,1.50
2023-04-27T03:17:55.872Z,1.88
2023-04-27T03:20:22.522Z,2.00
2023-04-27T03:22:49.038Z,1.85
2023-04-27T03:25:15.759Z,1.80
2023-04-27T03:27:43.457Z,1.88
2023-04-27T03:30:11.803Z,1.65
2023-04-27T03:32:38.475Z,1.90
2023-04-27T03:35:05.320Z,1.98
2023-04-27T03:37:32.706Z,1.65
2023-04-27T03:39:59.989Z,1.63
2023-04-27T03:42:26.536Z,1.70
2023-04-27T03:44:53.365Z,1.70
2023-04-27T03:47:19.936Z,1.60
2023-04-27T03:49:46.710Z,1.70
2023-04-27T03:52:13.288Z,1.73
2023-04-27T03:54:39.748Z,1.75
2023-04-27T03:57:06.384Z,1.80
2023-04-27T03:59:32.857Z,1.92
2023-04-27T04:02:01.086Z,1.70
2023-04-27T04:04:28.280Z,1.70
2023-04-27T04:06:54.915Z,1.55
2023-04-27T04:09:23.938Z,1.63
2023-04-27T04:11:51.838Z,1.80
2023-04-27T04:14:18.958Z,1.80
2023-04-27T04:16:45.400Z,1.70
2023-04-27T04:19:12.860Z,1.70
2023-04-27T04:21:42.622Z,2.20
2023-04-27T04:24:10.321Z,1.80
2023-04-27T04:26:37.394Z,2.10
2023-04-27T04:29:04.041Z,2.00
2023-04-27T04:31:30.698Z,2.20
2023-04-27T04:33:57.237Z,1.52
2023-04-27T04:36:23.952Z,1.75
2023-04-27T04:38:54.831Z,1.80
2023-04-27T04:41:21.462Z,2.03
2023-04-27T04:43:49.382Z,1.80
2023-04-27T04:46:17.318Z,1.80
2023-04-27T04:48:44.041Z,1.70
2023-04-27T04:51:11.532Z,1.60
2023-04-27T04:53:38.152Z,2.10
2023-04-27T04:56:10.558Z,1.95
2023-04-27T04:58:37.249Z,1.92
2023-04-27T05:01:04.490Z,2.10
2023-04-27T05:03:31.246Z,1.88
2023-04-27T05:05:57.838Z,2.45
2023-04-27T05:08:24.336Z,1.83
2023-04-27T05:10:54.393Z,1.90
2023-04-27T05:13:21.248Z,2.00
2023-04-27T05:15:48.106Z,1.88
2023-04-27T05:18:14.718Z,1.70
2023-04-27T05:20:41.346Z,2.25
2023-04-27T05:23:07.948Z,1.90
2023-04-27T05:25:35.022Z,1.90
2023-04-27T05:28:01.551Z,1.80
2023-04-27T05:30:28.026Z,1.83
2023-04-27T05:32:54.540Z,1.98
2023-04-27T05:35:21.402Z,1.70
2023-04-27T05:37:47.879Z,1.80
2023-04-27T05:40:15.334Z,1.95
2023-04-27T05:42:41.792Z,1.80
2023-04-27T05:45:08.559Z,1.90
2023-04-27T05:47:35.159Z,1.85
2023-04-27T05:50:01.848Z,1.77
2023-04-27T05:52:31.043Z,1.83
2023-04-27T05:55:01.389Z,1.70
2023-04-27T05:57:27.878Z,1.52
2023-04-27T05:59:54.305Z,1.83
2023-04-27T06:02:20.874Z,1.60
2023-04-27T06:04:47.705Z,1.60
2023-04-27T06:07:16.136Z,1.70
2023-04-27T06:09:42.895Z,1.92
2023-04-27T06:12:09.593Z,1.80
2023-04-27T06:14:36.739Z,2.08
2023-04-27T06:17:03.835Z,1.75
2023-04-27T06:19:30.453Z,1.88
2023-04-27T06:21:56.867Z,1.77
2023-04-27T06:24:23.381Z,1.88
2023-04-27T06:26:50.156Z,1.90
2023-04-27T06:29:16.672Z,2.05
2023-04-27T06:31:43.276Z,1.80
2023-04-27T06:34:09.756Z,1.92
2023-04-27T06:36:36.445Z,1.80
2023-04-27T06:39:02.988Z,2.03
2023-04-27T06:41:29.474Z,1.70
2023-04-27T06:43:57.451Z,1.85
2023-04-27T06:46:25.139Z,2.03
2023-04-27T06:48:52.724Z,2.08
2023-04-27T06:53:45.583Z,1.90
2023-04-27T06:56:12.208Z,1.98
2023-04-27T06:58:38.788Z,1.90
2023-04-27T07:01:05.388Z,1.85
2023-04-27T07:03:34.707Z,1.50
2023-04-27T07:06:01.336Z,1.85
2023-04-27T07:08:27.776Z,1.95
2023-04-27T07:10:54.210Z,1.92
2023-04-27T07:13:20.601Z,2.10
2023-04-27T07:15:47.076Z,1.77
2023-04-27T07:18:13.642Z,1.58
2023-04-27T07:20:41.186Z,1.70
2023-04-27T07:23:08.195Z,1.73
2023-04-27T07:25:35.691Z,1.83
2023-04-27T07:28:02.363Z,1.80
2023-04-27T07:30:30.779Z,1.52
2023-04-27T07:33:00.981Z,1.60
2023-04-27T07:35:27.643Z,1.67
2023-04-27T07:37:56.622Z,1.50
2023-04-27T07:40:24.165Z,1.55
2023-04-27T07:42:51.124Z,1.52
2023-04-27T07:45:18.034Z,1.45
2023-04-27T07:47:44.652Z,1.50
2023-04-27T07:50:11.267Z,1.33
2023-04-27T07:52:37.842Z,1.27
2023-04-27T07:55:04.704Z,1.50
2023-04-27T07:57:31.568Z,1.30
2023-04-27T07:59:58.110Z,1.25
2023-04-27T08:02:27.055Z,1.40
2023-04-27T08:04:54.066Z,1.40
2023-04-27T08:09:47.459Z,1.40
2023-04-27T08:12:13.935Z,1.50
2023-04-27T08:14:40.443Z,1.40
2023-04-27T08:17:07.083Z,1.33
2023-04-27T08:19:33.589Z,1.20
2023-04-27T08:22:00.768Z,1.38
2023-04-27T08:26:53.671Z,1.40
2023-04-27T08:29:27.736Z,1.48
2023-04-27T08:31:56.921Z,1.33
2023-04-27T08:34:23.796Z,1.15
2023-04-27T08:36:52.456Z,1.40
2023-04-27T08:39:19.154Z,1.20
2023-04-27T08:41:46.402Z,1.40
2023-04-27T08:44:13.240Z,1.33
2023-04-27T08:46:39.929Z,1.30
2023-04-27T08:49:07.860Z,1.40
2023-04-27T08:51:34.619Z,1.33
2023-04-27T08:54:01.404Z,1.20
2023-04-27T08:56:28.699Z,1.20
2023-04-27T08:58:56.216Z,1.25
2023-04-27T09:01:23.873Z,1.20
2023-04-27T09:03:56.122Z,1.10
2023-04-27T09:06:32.911Z,1.10
2023-04-27T09:08:59.897Z,1.10
2023-04-27T09:11:31.435Z,1.20
2023-04-27T09:13:58.937Z,1.20
2023-04-27T09:16:26.444Z,1.30
2023-04-27T09:18:53.293Z,1.23
2023-04-27T09:21:26.821Z,1.20
2023-04-27T09:23:53.723Z,1.20
2023-04-27T09:26:24.194Z,1.15
2023-04-27T09:28:51.845Z,1.10
2023-04-27T09:31:18.506Z,1.13
2023-04-27T09:33:45.988Z,1.25
2023-04-27T09:36:12.544Z,1.20
2023-04-27T09:38:39.368Z,1.20
2023-04-27T09:41:06.671Z,1.10
2023-04-27T09:43:33.427Z,1.20
2023-04-27T09:46:00.056Z,1.23
2023-04-27T09:48:26.896Z,1.25
2023-04-27T09:50:53.488Z,1.30
2023-04-27T09:53:22.282Z,1.30
2023-04-27T09:55:50.536Z,1.40
2023-04-27T09:58:37.007Z,1.13
2023-04-27T10:03:30.079Z,1.20
2023-04-27T10:06:08.799Z,1.13
2023-04-27T10:08:35.947Z,1.20
2023-04-27T10:13:31.489Z,1.25
2023-04-27T10:15:57.978Z,1.30
2023-04-27T10:18:31.872Z,1.20
2023-04-27T10:21:09.665Z,1.27
2023-04-27T10:23:45.492Z,1.10
2023-04-27T10:26:11.966Z,1.20
2023-04-27T10:28:39.419Z,1.30
2023-04-27T10:31:10.006Z,1.20
2023-04-27T10:33:42.772Z,1.10
2023-04-27T10:36:14.630Z,1.20
2023-04-27T10:38:41.941Z,1.20
2023-04-27T10:41:13.803Z,1.20
2023-04-27T10:43:40.952Z,1.20
2023-04-27T10:46:08.212Z,1.30
2023-04-27T10:51:01.602Z,1.30
2023-04-27T10:53:33.991Z,1.20
2023-04-27T10:56:00.392Z,1.05
2023-04-27T10:58:34.621Z,1.23
2023-04-27T11:01:12.618Z,1.20
2023-04-27T11:03:39.266Z,1.30
2023-04-27T11:06:06.376Z,1.10
2023-04-27T11:08:34.232Z,1.27
2023-04-27T11:11:01.636Z,1.35
2023-04-27T11:13:28.600Z,1.27
2023-04-27T11:15:56.142Z,1.20
2023-04-27T11:18:23.709Z,1.40
2023-04-27T11:20:52.434Z,1.60
2023-04-27T11:23:36.913Z,1.70
2023-04-27T11:26:09.412Z,1.23
2023-04-27T11:28:35.939Z,1.30
2023-04-27T11:31:02.479Z,1.45
2023-04-27T11:33:29.230Z,1.45
2023-04-27T11:35:56.746Z,1.52
2023-04-27T11:38:23.494Z,1.50
2023-04-27T11:41:19.556Z,1.30
2023-04-27T11:43:49.959Z,1.52
2023-04-27T11:46:22.888Z,2.05
2023-04-27T11:48:49.439Z,2.15
2023-04-27T11:51:15.950Z,1.85
2023-04-27T11:53:42.968Z,2.10
2023-04-27T11:56:11.043Z,1.80
2023-04-27T11:58:38.926Z,1.70
2023-04-27T12:01:05.777Z,2.00
2023-04-27T12:03:32.686Z,2.00
2023-04-27T12:06:11.626Z,1.90
2023-04-27T12:08:43.229Z,1.92
2023-04-27T12:11:10.058Z,2.13
2023-04-27T12:13:36.635Z,1.88
2023-04-27T12:16:03.200Z,2.08
2023-04-27T12:18:29.640Z,1.60
2023-04-27T12:20:56.131Z,1.85
2023-04-27T12:23:22.583Z,1.70
2023-04-27T12:25:49.229Z,1.67
2023-04-27T12:28:19.152Z,1.63
2023-04-27T12:30:45.879Z,1.60
2023-04-27T12:33:12.588Z,1.55
2023-04-27T12:35:39.205Z,1.50
2023-04-27T12:38:05.709Z,1.67
2023-04-27T12:40:32.986Z,2.35
2023-04-27T12:43:01.168Z,1.70
2023-04-27T12:45:27.919Z,1.73
2023-04-27T12:48:03.305Z,1.67
2023-04-27T12:50:32.582Z,1.90
2023-04-27T12:52:59.762Z,1.60
2023-04-27T12:55:33.690Z,1.70
2023-04-27T12:58:01.103Z,1.67
2023-04-27T13:00:27.721Z,1.70
2023-04-27T13:02:54.522Z,1.58
2023-04-27T13:05:22.437Z,1.60
2023-04-27T13:07:49.445Z,1.63
2023-04-27T13:10:16.184Z,1.40
2023-04-27T13:12:42.719Z,1.60
2023-04-27T13:15:09.502Z,1.70
2023-04-27T13:17:36.182Z,1.60
2023-04-27T13:20:02.765Z,1.80
2023-04-27T13:22:29.230Z,1.33
2023-04-27T13:24:56.315Z,1.63
2023-04-27T13:27:25.183Z,1.58
2023-04-27T13:29:51.925Z,1.77
2023-04-27T13:32:18.728Z,1.63
2023-04-27T13:34:45.549Z,1.80
2023-04-27T13:37:14.759Z,2.05
2023-04-27T13:39:41.261Z,1.40
2023-04-27T13:42:08.358Z,1.30
2023-04-27T13:47:01.290Z,1.50
2023-04-27T13:49:27.819Z,1.45
2023-04-27T13:51:54.378Z,1.55
2023-04-27T13:54:21.541Z,1.80
2023-04-27T13:56:48.191Z,1.50
2023-04-27T13:59:16.760Z,1.60
2023-04-27T14:01:43.318Z,1.40
2023-04-27T14:04:10.110Z,1.33
2023-04-27T14:06:36.817Z,1.40
2023-04-27T14:09:04.020Z,1.40
2023-04-27T14:13:57.900Z,1.60
2023-04-27T14:16:24.610Z,1.63
2023-04-27T14:18:52.349Z,1.77
2023-04-27T14:21:19.102Z,1.75
2023-04-27T14:23:45.587Z,1.50
2023-04-27T14:26:12.225Z,1.73
2023-04-27T14:28:39.147Z,1.50
2023-04-27T14:31:05.756Z,1.52
2023-04-27T14:33:32.299Z,1.55
2023-04-27T14:35:59.537Z,1.40
2023-04-27T14:38:26.223Z,1.50
2023-04-27T14:40:52.706Z,1.48
2023-04-27T14:43:19.258Z,1.40
2023-04-27T14:45:53.969Z,1.65
2023-04-27T14:48:22.236Z,1.42
2023-04-27T14:50:48.732Z,1.67
2023-04-27T14:53:15.208Z,1.42
2023-04-27T14:55:43.834Z,1.70
2023-04-27T14:58:10.299Z,1.70
2023-04-27T15:00:36.972Z,1.58
2023-04-27T15:03:03.691Z,1.50
2023-04-27T15:05:30.378Z,1.50
2023-04-27T15:07:56.816Z,1.70
2023-04-27T15:10:23.249Z,1.60
2023-04-27T15:12:49.772Z,1.50
2023-04-27T15:15:16.343Z,1.70
2023-04-27T15:17:42.816Z,1.67
2023-04-27T15:20:10.778Z,1.55
2023-04-27T15:22:37.262Z,1.70
2023-04-27T15:25:03.787Z,1.88
2023-04-27T15:27:30.300Z,1.70
2023-04-27T15:29:58.064Z,1.50
2023-04-27T15:32:29.824Z,1.52
2023-04-27T15:34:59.694Z,1.40
2023-04-27T15:37:27.931Z,1.52
2023-04-27T15:39:54.942Z,1.40
2023-04-27T15:42:21.804Z,1.95
2023-04-27T15:44:48.352Z,1.55
2023-04-27T15:47:15.345Z,1.77
2023-04-27T15:49:53.358Z,1.67
2023-04-27T15:52:23.091Z,1.60
2023-04-27T15:54:49.662Z,1.88
2023-04-27T15:57:18.227Z,1.80
2023-04-27T15:59:44.754Z,1.90
2023-04-27T16:02:12.500Z,1.90
2023-04-27T16:04:39.186Z,2.00
2023-04-27T16:07:07.064Z,2.15
2023-04-27T16:09:33.670Z,1.92
2023-04-27T16:12:00.203Z,2.08
2023-04-27T16:14:26.736Z,2.05
2023-04-27T16:16:54.881Z,1.80
2023-04-27T16:19:22.474Z,1.92
2023-04-27T16:21:48.944Z,1.90
2023-04-27T16:24:15.504Z,2.00
2023-04-27T16:26:41.985Z,2.05
2023-04-27T16:29:08.450Z,2.05
2023-04-27T16:31:35.522Z,2.20
2023-04-27T16:34:02.131Z,1.98
2023-04-27T16:36:28.775Z,2.10
2023-04-27T16:38:55.646Z,1.90
2023-04-27T16:41:22.446Z,2.10
2023-04-27T16:43:50.711Z,2.08
2023-04-27T16:46:17.568Z,1.90
2023-04-27T16:48:44.809Z,1.98
2023-04-27T16:51:11.786Z,1.80
2023-04-27T16:53:38.319Z,1.70
2023-04-27T16:56:04.990Z,1.90
2023-04-27T16:58:33.419Z,1.80
2023-04-27T17:00:59.935Z,1.80
2023-04-27T17:03:26.892Z,2.10
2023-04-27T17:05:53.649Z,1.90
2023-04-27T17:08:20.303Z,1.73
2023-04-27T17:10:46.997Z,1.70
2023-04-27T17:13:15.694Z,2.08
2023-04-27T17:15:42.355Z,2.00
2023-04-27T17:18:09.760Z,1.80
2023-04-27T17:20:36.783Z,1.70
2023-04-27T17:23:03.389Z,1.80
2023-04-27T17:25:30.067Z,1.70
2023-04-27T17:27:56.529Z,1.75
2023-04-27T17:30:23.136Z,1.90
2023-04-27T17:32:58.789Z,1.73
2023-04-27T17:35:26.710Z,2.03
2023-04-27T17:40:21.085Z,1.80
2023-04-27T17:42:47.774Z,1.90
2023-04-27T17:45:14.333Z,1.90
2023-04-27T17:47:40.835Z,1.85
2023-04-27T17:50:07.947Z,1.55
2023-04-27T17:52:34.608Z,1.70
2023-04-27T17:55:01.061Z,1.80
2023-04-27T17:57:27.625Z,1.80
2023-04-27T17:59:54.117Z,1.75
2023-04-27T18:02:20.828Z,1.80
2023-04-27T18:04:47.360Z,1.67
2023-04-27T18:07:13.811Z,1.80
2023-04-27T18:09:40.324Z,1.77
2023-04-27T18:12:11.104Z,1.60
2023-04-27T18:14:38.477Z,1.80
2023-04-27T18:17:05.213Z,1.77
2023-04-27T18:19:31.713Z,1.73
2023-04-27T18:21:58.230Z,1.63
2023-04-27T18:24:24.807Z,1.80
2023-04-27T18:26:51.546Z,2.00
2023-04-27T18:29:18.143Z,2.03
2023-04-27T18:31:44.664Z,2.05
2023-04-27T18:34:11.478Z,3.08
2023-04-27T18:36:37.902Z,3.30
2023-04-27T18:39:04.323Z,3.08
2023-04-27T18:41:30.902Z,3.08
2023-04-27T18:44:02.977Z,3.08
2023-04-27T18:46:29.557Z,2.80
2023-04-27T18:48:56.274Z,3.30
2023-04-27T18:51:26.107Z,2.83
2023-04-27T18:53:53.209Z,2.85
2023-04-27T18:56:19.716Z,3.00
2023-04-27T18:58:48.207Z,3.00
2023-04-27T19:01:22.267Z,3.00
2023-04-27T19:03:49.068Z,3.03
2023-04-27T19:06:15.881Z,3.00
2023-04-27T19:08:43.071Z,3.05
2023-04-27T19:11:09.547Z,3.00
2023-04-27T19:13:36.455Z,2.90
2023-04-27T19:16:03.803Z,3.00
2023-04-27T19:18:30.527Z,2.97
2023-04-27T19:20:58.034Z,2.90
2023-04-27T19:23:24.589Z,3.00
2023-04-27T19:25:51.846Z,2.80
2023-04-27T19:28:21.610Z,2.90
2023-04-27T19:30:48.234Z,3.00
2023-04-27T19:33:15.289Z,2.80
2023-04-27T19:35:41.827Z,2.88
2023-04-27T19:38:08.731Z,2.90
2023-04-27T19:40:35.405Z,2.80
2023-04-27T19:43:01.946Z,2.60
2023-04-27T19:45:28.387Z,2.50
2023-04-27T19:47:54.935Z,2.63
2023-04-27T19:50:21.476Z,2.90
2023-04-27T19:52:47.930Z,2.35
2023-04-27T19:55:14.417Z,2.88
2023-04-27T19:57:40.929Z,2.58
2023-04-27T20:00:11.704Z,2.85
2023-04-27T20:05:08.466Z,2.30
2023-04-27T20:07:35.480Z,2.60
2023-04-27T20:10:03.049Z,2.42
2023-04-27T20:15:02.152Z,2.63
2023-04-27T20:17:28.828Z,2.38
2023-04-27T20:19:56.368Z,2.78
2023-04-27T20:22:23.640Z,2.47
2023-04-27T20:24:50.488Z,2.47
2023-04-27T20:27:17.191Z,2.40
2023-04-27T20:29:45.187Z,2.50
2023-04-27T20:32:12.073Z,2.95
2023-04-27T20:34:38.783Z,2.10
2023-04-27T20:37:05.465Z,2.20
2023-04-27T20:39:32.256Z,2.60
2023-04-27T20:42:00.163Z,2.22
2023-04-27T20:44:26.863Z,2.38
2023-04-27T20:46:53.342Z,2.55
2023-04-27T20:49:32.081Z,2.20
2023-04-27T20:52:01.728Z,2.22
2023-04-27T20:54:28.278Z,2.20
2023-04-27T20:56:54.846Z,2.10
2023-04-27T20:59:21.373Z,2.40
2023-04-27T21:01:47.905Z,2.10
2023-04-27T21:04:14.928Z,2.33
2023-04-27T21:06:41.797Z,2.05
2023-04-27T21:09:08.295Z,2.15
2023-04-27T21:11:34.908Z,2.20
2023-04-27T21:14:01.408Z,2.10
2023-04-27T21:16:27.911Z,2.08
2023-04-27T21:18:54.393Z,2.05
2023-04-27T21:21:22.103Z,1.88
2023-04-27T21:23:54.332Z,2.30
2023-04-27T21:26:27.460Z,2.20
2023-04-27T21:28:53.969Z,2.20
2023-04-27T21:31:21.251Z,2.00
2023-04-27T21:33:47.853Z,2.00
2023-04-27T21:36:14.391Z,2.30
2023-04-27T21:38:40.887Z,2.28
2023-04-27T21:41:07.504Z,2.00
2023-04-27T21:43:34.058Z,2.00
2023-04-27T21:46:00.729Z,2.13
2023-04-27T21:48:27.311Z,2.17
2023-04-27T21:50:53.926Z,2.08
2023-04-27T21:53:20.450Z,2.10
2023-04-27T21:55:46.886Z,2.17
2023-04-27T21:58:13.363Z,2.08
2023-04-27T22:00:39.832Z,2.30
2023-04-27T22:03:06.820Z,2.03
2023-04-27T22:05:33.583Z,2.05
2023-04-27T22:08:00.033Z,1.90
2023-04-27T22:10:26.526Z,1.95
2023-04-27T22:12:52.973Z,1.90
2023-04-27T22:15:20.321Z,2.53
2023-04-27T22:17:47.169Z,3.42
2023-04-27T22:20:14.410Z,2.63
2023-04-27T22:22:41.249Z,3.30
2023-04-27T22:25:07.905Z,3.22
2023-04-27T22:27:42.066Z,3.28
2023-04-27T22:30:11.583Z,3.38
2023-04-27T22:32:38.132Z,3.70
2023-04-27T22:35:08.666Z,3.30
2023-04-27T22:37:37.290Z,3.50
2023-04-27T22:40:05.890Z,3.55
2023-04-27T22:42:32.519Z,3.58
2023-04-27T22:44:58.960Z,4.18
2023-04-27T22:47:25.559Z,3.50
2023-04-27T22:49:54.546Z,3.67
2023-04-27T22:52:21.861Z,3.50
2023-04-27T22:54:48.293Z,3.67
2023-04-27T22:57:14.833Z,3.22
2023-04-27T22:59:41.500Z,4.20
2023-04-27T23:02:08.023Z,3.45
2023-04-27T23:04:34.440Z,3.50
2023-04-27T23:07:00.959Z,3.42
2023-04-27T23:09:27.767Z,3.72
2023-04-27T23:11:54.857Z,3.55
2023-04-27T23:14:21.354Z,3.40
2023-04-27T23:16:47.873Z,3.55
2023-04-27T23:19:14.340Z,3.42
2023-04-27T23:21:40.869Z,3.72
2023-04-27T23:24:07.390Z,3.63
2023-04-27T23:26:33.866Z,3.50
2023-04-27T23:29:00.317Z,3.72
2023-04-27T23:31:26.865Z,2.70
2023-04-27T23:33:53.373Z,2.90
2023-04-27T23:36:19.836Z,3.50
2023-04-27T23:38:46.326Z,3.10
2023-04-27T23:41:12.827Z,3.45
2023-04-27T23:43:39.631Z,3.22
2023-04-27T23:46:06.180Z,3.17
2023-04-27T23:48:32.841Z,3.55
2023-04-27T23:51:00.913Z,2.80
2023-04-27T23:53:27.868Z,2.47
2023-04-27T23:55:54.465Z,2.83
2023-04-27T23:58:21.968Z,3.00
